Time;durP1;ratioP1;P1;durP2;ratioP2;P2;SDS_P1;SDS_P2;PMS_P1;PMS_P2;Temp;Humidity;BMP_temperature;BMP_pressure;BME280_temperature;BME280_humidity;BME280_pressure;Samples;Min_cycle;Max_cycle;Signal;HPM_P1;HPM_P2
2022/01/24 00:03:57;;;;;;;4.25;2.25;;;3.70;99.90;;;;;;7194473;32;20593;-77
2022/01/24 00:08:25;;;;;;;3.95;1.95;;;3.70;99.90;;;;;;7218770;32;20194;-77
2022/01/24 00:16:57;;;;;;;5.45;1.85;;;3.10;99.90;;;;;;7228970;32;20112;-77
2022/01/24 00:29:37;;;;;;;4.50;2.15;;;2.70;99.90;;;;;;7214952;32;20113;-77
2022/01/24 00:33:39;;;;;;;3.33;2.12;;;2.50;99.90;;;;;;7204838;32;20668;-77
2022/01/24 00:37:41;;;;;;;3.22;2.12;;;2.40;99.90;;;;;;7197570;32;20509;-77
2022/01/24 00:41:57;;;;;;;3.40;2.10;;;2.40;99.90;;;;;;7206162;32;20257;-77
2022/01/24 00:58:35;;;;;;;3.25;2.05;;;3.10;99.90;;;;;;7221225;32;20830;-77
2022/01/24 01:02:38;;;;;;;2.87;2.03;;;3.30;99.90;;;;;;7227394;32;20212;-77
2022/01/24 01:06:43;;;;;;;3.85;2.25;;;3.50;99.90;;;;;;7211275;32;20128;-78
2022/01/24 01:19:27;;;;;;;2.75;2.03;;;3.80;99.90;;;;;;7212293;32;20349;-77
2022/01/24 01:23:30;;;;;;;3.22;2.10;;;3.90;99.90;;;;;;7211700;32;20171;-76
2022/01/24 01:27:38;;;;;;;3.20;2.12;;;3.90;99.90;;;;;;7215526;32;20211;-75
2022/01/24 01:36:36;;;;;;;3.10;2.03;;;4.10;99.90;;;;;;7173508;32;20200;-78
2022/01/24 01:52:18;;;;;;;4.65;2.22;;;4.20;99.90;;;;;;7203254;32;20679;-77
2022/01/24 01:53:58;;;;;;;2.85;2.08;;;4.40;99.90;;;;;;7212060;32;20140;-76
2022/01/24 01:58:00;;;;;;;3.08;2.20;;;4.50;99.90;;;;;;7237236;32;20180;-73
2022/01/24 02:02:02;;;;;;;3.17;2.10;;;4.40;99.90;;;;;;7234489;32;20255;-75
2022/01/24 02:06:03;;;;;;;2.70;1.83;;;4.50;99.90;;;;;;7228229;32;20476;-75
2022/01/24 02:10:06;;;;;;;2.67;1.98;;;4.50;99.90;;;;;;7223901;32;20678;-76
2022/01/24 02:14:13;;;;;;;2.75;2.03;;;4.50;99.90;;;;;;7218582;32;20765;-75
2022/01/24 02:22:47;;;;;;;2.70;1.92;;;4.60;99.90;;;;;;7204174;32;20250;-75
2022/01/24 02:26:54;;;;;;;2.70;2.10;;;4.60;99.90;;;;;;7210567;32;20289;-77
2022/01/24 02:31:22;;;;;;;3.55;1.80;;;4.50;99.90;;;;;;7213683;32;20564;-76
2022/01/24 02:35:23;;;;;;;3.28;1.80;;;4.50;99.90;;;;;;7219242;32;20144;-76
2022/01/24 02:52:14;;;;;;;3.62;1.50;;;4.70;99.90;;;;;;7212481;32;21137;-76
2022/01/24 02:56:15;;;;;;;4.95;1.50;;;4.70;99.90;;;;;;7212934;32;20271;-76
2022/01/24 03:00:17;;;;;;;3.47;1.33;;;4.60;99.90;;;;;;7223745;32;20124;-75
2022/01/24 03:04:19;;;;;;;1.52;1.00;;;4.70;99.90;;;;;;7209246;32;20605;-76
2022/01/24 03:08:22;;;;;;;1.73;1.42;;;4.70;99.90;;;;;;7207994;32;20523;-75
2022/01/24 03:12:45;;;;;;;1.73;1.30;;;4.70;99.90;;;;;;7214028;32;20188;-76
2022/01/24 03:16:47;;;;;;;2.05;1.40;;;4.70;99.90;;;;;;7216505;32;20112;-76
2022/01/24 03:20:49;;;;;;;2.20;1.35;;;4.70;99.90;;;;;;7227331;32;20218;-75
2022/01/24 03:24:51;;;;;;;3.30;1.65;;;4.70;99.90;;;;;;7222514;32;20121;-76
2022/01/24 03:28:53;;;;;;;1.80;1.30;;;4.60;99.90;;;;;;7200357;32;20142;-76
2022/01/24 03:32:56;;;;;;;2.05;1.30;;;4.60;99.90;;;;;;7215666;32;20112;-76
2022/01/24 03:36:58;;;;;;;1.52;1.00;;;4.60;99.90;;;;;;7227733;32;20602;-76
2022/01/24 03:41:00;;;;;;;2.47;1.65;;;4.60;99.90;;;;;;7201783;32;20230;-76
2022/01/24 03:45:06;;;;;;;2.58;1.62;;;4.60;99.90;;;;;;7212082;32;20222;-76
2022/01/24 03:49:19;;;;;;;2.28;1.25;;;4.60;99.90;;;;;;7198148;32;20190;-77
2022/01/24 03:53:22;;;;;;;1.62;1.30;;;4.60;99.90;;;;;;7221491;32;20121;-76
2022/01/24 03:57:24;;;;;;;2.62;1.02;;;4.60;99.90;;;;;;7208321;32;20154;-75
2022/01/24 04:01:26;;;;;;;3.42;1.35;;;4.60;99.90;;;;;;7211938;32;20145;-76
2022/01/24 04:05:28;;;;;;;1.60;1.20;;;4.60;99.90;;;;;;7209171;32;20223;-77
2022/01/24 04:09:30;;;;;;;1.52;1.10;;;4.60;99.90;;;;;;7219682;32;20279;-77
2022/01/24 04:13:35;;;;;;;2.10;1.27;;;4.60;99.90;;;;;;7211609;32;20187;-76
2022/01/24 04:17:42;;;;;;;2.80;1.40;;;4.60;99.90;;;;;;7211127;32;20301;-76
2022/01/24 04:21:48;;;;;;;2.70;1.50;;;4.60;99.90;;;;;;7233015;32;20138;-76
2022/01/24 04:25:50;;;;;;;1.85;1.37;;;4.70;99.90;;;;;;7222826;32;20206;-76
2022/01/24 04:29:51;;;;;;;2.40;1.17;;;4.60;99.90;;;;;;7203281;32;20136;-76
2022/01/24 04:33:54;;;;;;;3.95;1.25;;;4.60;99.90;;;;;;7204611;32;20114;-77
2022/01/24 04:37:56;;;;;;;2.08;1.40;;;4.70;99.90;;;;;;7215426;32;20199;-76
2022/01/24 04:42:00;;;;;;;1.92;1.20;;;4.70;99.90;;;;;;7213567;32;20109;-75
2022/01/24 04:46:16;;;;;;;1.73;1.30;;;4.70;99.90;;;;;;7213259;32;20164;-77
2022/01/24 04:50:40;;;;;;;1.50;1.10;;;4.70;99.90;;;;;;7224815;32;20121;-77
2022/01/24 04:54:43;;;;;;;3.08;1.48;;;4.80;99.90;;;;;;7229157;32;20968;-77
2022/01/24 04:58:44;;;;;;;1.55;1.12;;;4.70;99.90;;;;;;7210740;32;20102;-76
2022/01/24 05:02:47;;;;;;;2.65;1.20;;;4.80;99.90;;;;;;7211272;32;20192;-76
2022/01/24 05:06:49;;;;;;;2.03;1.30;;;4.80;99.90;;;;;;7215567;32;20186;-77
2022/01/24 05:11:13;;;;;;;1.95;1.40;;;4.70;99.90;;;;;;7204401;32;20239;-76
2022/01/24 05:23:56;;;;;;;1.87;1.08;;;4.70;99.90;;;;;;7223067;32;20180;-76
2022/01/24 05:27:57;;;;;;;2.37;1.35;;;4.70;99.90;;;;;;7222044;32;20228;-74
2022/01/24 05:31:59;;;;;;;2.47;1.50;;;4.80;99.90;;;;;;7221773;32;20114;-76
2022/01/24 05:36:02;;;;;;;3.33;1.62;;;4.70;99.90;;;;;;7211592;32;20158;-77
2022/01/24 05:40:04;;;;;;;1.98;1.48;;;4.70;99.90;;;;;;7213133;32;20481;-78
2022/01/24 05:44:07;;;;;;;2.03;1.40;;;4.60;99.90;;;;;;7268210;32;20302;-75
2022/01/24 05:48:09;;;;;;;2.75;1.65;;;4.60;99.90;;;;;;7223106;32;20482;-77
2022/01/24 05:52:11;;;;;;;4.55;2.10;;;4.60;99.90;;;;;;7213558;32;20131;-78
2022/01/24 05:56:13;;;;;;;3.65;1.87;;;4.60;99.90;;;;;;7222861;32;20200;-79
2022/01/24 06:00:15;;;;;;;4.20;1.90;;;4.60;99.90;;;;;;7212244;32;20361;-76
2022/01/24 06:04:17;;;;;;;2.80;1.65;;;4.70;99.90;;;;;;7213281;32;20109;-76
2022/01/24 06:08:18;;;;;;;3.90;1.80;;;4.70;99.90;;;;;;7198729;32;20174;-75
2022/01/24 06:12:20;;;;;;;1.98;1.48;;;4.60;99.90;;;;;;7239029;32;20298;-77
2022/01/24 06:16:22;;;;;;;4.32;1.80;;;4.60;99.90;;;;;;7219347;32;20174;-77
2022/01/24 06:20:24;;;;;;;2.80;1.83;;;4.70;99.90;;;;;;7215835;32;20191;-77
2022/01/24 06:24:26;;;;;;;1.98;1.73;;;4.50;99.90;;;;;;7216615;32;20143;-77
2022/01/24 06:28:48;;;;;;;3.17;1.67;;;4.70;99.90;;;;;;7223380;32;20113;-77
2022/01/24 06:32:50;;;;;;;4.47;1.92;;;4.70;99.90;;;;;;7229497;32;20211;-76
2022/01/24 06:36:52;;;;;;;3.25;1.52;;;4.60;99.90;;;;;;7219632;32;20193;-76
2022/01/24 06:40:54;;;;;;;2.17;1.75;;;4.70;99.90;;;;;;7198461;32;20569;-78
2022/01/24 06:44:56;;;;;;;4.03;1.83;;;4.60;99.90;;;;;;7209534;32;20299;-76
2022/01/24 06:48:58;;;;;;;4.85;1.62;;;4.60;99.90;;;;;;7208461;32;20121;-77
2022/01/24 06:53:00;;;;;;;1.95;1.60;;;4.60;99.90;;;;;;7200616;32;20212;-77
2022/01/24 06:57:02;;;;;;;3.97;1.77;;;4.60;99.90;;;;;;7197831;32;20113;-76
2022/01/24 07:01:04;;;;;;;2.55;1.95;;;4.60;99.90;;;;;;7206942;32;20116;-77
2022/01/24 07:05:07;;;;;;;4.87;1.98;;;4.70;99.90;;;;;;7206630;32;20132;-77
2022/01/24 07:09:09;;;;;;;2.83;1.70;;;4.60;99.90;;;;;;7207164;32;20174;-76
2022/01/24 07:13:11;;;;;;;4.87;1.67;;;4.70;99.90;;;;;;7228623;32;20239;-77
2022/01/24 07:17:31;;;;;;;2.85;2.00;;;4.60;99.90;;;;;;7201786;32;20227;-76
2022/01/24 07:21:33;;;;;;;2.30;1.80;;;4.50;99.90;;;;;;7200048;32;20199;-76
2022/01/24 07:25:34;;;;;;;4.65;2.03;;;4.50;99.90;;;;;;7190949;32;20135;-76
2022/01/24 07:29:39;;;;;;;2.60;1.55;;;4.40;99.90;;;;;;7221989;32;20121;-76
2022/01/24 07:33:41;;;;;;;4.25;1.98;;;4.50;99.90;;;;;;7203615;32;20295;-76
2022/01/24 07:37:43;;;;;;;4.50;1.92;;;4.60;99.90;;;;;;7219913;32;20178;-76
2022/01/24 07:41:46;;;;;;;2.87;2.08;;;4.50;99.90;;;;;;7212361;32;20172;-75
2022/01/24 07:45:49;;;;;;;5.35;2.12;;;4.30;99.90;;;;;;7227284;32;20101;-75
2022/01/24 07:49:51;;;;;;;2.75;2.00;;;4.40;99.90;;;;;;7210421;32;20244;-76
2022/01/24 07:53:53;;;;;;;2.75;1.75;;;4.40;99.90;;;;;;7205442;32;20182;-76
2022/01/24 07:57:55;;;;;;;3.12;2.00;;;4.40;99.90;;;;;;7192354;32;20440;-75
2022/01/24 08:01:57;;;;;;;4.53;2.00;;;4.40;99.90;;;;;;7217200;32;20117;-76
2022/01/24 08:05:59;;;;;;;3.17;2.35;;;4.50;99.90;;;;;;7218879;32;20147;-75
2022/01/24 08:10:01;;;;;;;3.37;2.10;;;4.50;99.90;;;;;;7206991;32;20269;-76
2022/01/24 08:14:03;;;;;;;4.00;2.17;;;4.50;99.90;;;;;;7212033;32;20133;-75
2022/01/24 08:18:04;;;;;;;3.53;1.90;;;4.40;99.90;;;;;;7199763;32;20129;-75
2022/01/24 08:22:06;;;;;;;3.83;1.90;;;4.40;99.90;;;;;;7228198;32;20121;-76
2022/01/24 08:26:13;;;;;;;3.93;2.50;;;4.50;99.90;;;;;;7222032;32;20170;-76
2022/01/24 08:30:22;;;;;;;6.03;3.10;;;4.60;99.90;;;;;;7205621;32;20816;-76
2022/01/24 08:34:24;;;;;;;4.22;2.55;;;4.60;99.90;;;;;;7205106;32;21209;-76
2022/01/24 08:38:27;;;;;;;4.82;2.58;;;4.80;99.90;;;;;;7200157;32;20141;-76
2022/01/24 08:46:31;;;;;;;2.87;1.95;;;4.80;99.90;;;;;;7221259;32;20978;-77
2022/01/24 08:50:35;;;;;;;3.00;2.20;;;4.90;99.90;;;;;;7206245;32;20176;-76
2022/01/24 08:54:37;;;;;;;3.72;2.30;;;5.00;99.90;;;;;;7207398;32;20186;-76
2022/01/24 08:58:39;;;;;;;4.07;2.37;;;5.10;99.90;;;;;;7210814;32;20142;-77
2022/01/24 09:02:41;;;;;;;3.12;2.12;;;5.10;99.90;;;;;;7211225;32;20271;-77
2022/01/24 09:06:43;;;;;;;4.65;2.70;;;5.10;99.90;;;;;;7215521;32;20573;-75
2022/01/24 09:10:47;;;;;;;4.85;2.72;;;5.20;99.90;;;;;;7217603;32;20180;-75
2022/01/24 09:14:49;;;;;;;3.97;2.17;;;5.20;99.90;;;;;;7223515;32;20134;-76
2022/01/24 09:18:51;;;;;;;5.50;2.37;;;5.30;99.90;;;;;;7199355;32;20120;-75
2022/01/24 09:22:54;;;;;;;4.55;2.58;;;5.40;99.90;;;;;;7220303;32;20117;-76
2022/01/24 09:26:56;;;;;;;3.65;1.98;;;5.40;99.90;;;;;;7200878;32;20132;-76
2022/01/24 09:30:57;;;;;;;4.53;2.47;;;5.30;99.90;;;;;;7197279;32;20121;-74
2022/01/24 09:34:59;;;;;;;5.68;2.50;;;5.40;99.90;;;;;;7197863;32;20120;-77
2022/01/24 09:39:02;;;;;;;3.30;2.22;;;5.50;99.90;;;;;;7210022;32;20200;-77
2022/01/24 09:43:04;;;;;;;2.97;2.55;;;5.60;99.90;;;;;;7217348;32;20571;-75
2022/01/24 09:47:06;;;;;;;4.07;2.50;;;5.70;99.90;;;;;;7232246;32;20167;-73
2022/01/24 09:51:08;;;;;;;3.25;2.53;;;5.80;99.90;;;;;;7242109;32;20225;-77
2022/01/24 09:55:10;;;;;;;3.22;2.10;;;5.80;99.90;;;;;;7208118;32;20265;-75
2022/01/24 09:59:12;;;;;;;4.07;2.17;;;5.70;99.90;;;;;;7217921;32;20243;-76
2022/01/24 10:03:15;;;;;;;2.10;1.75;;;5.50;99.90;;;;;;7195818;32;20183;-76
2022/01/24 10:07:39;;;;;;;3.87;2.12;;;5.60;99.90;;;;;;7213542;32;20212;-76
2022/01/24 10:11:59;;;;;;;3.05;2.25;;;5.60;99.90;;;;;;7209140;32;20270;-76
2022/01/24 10:20:42;;;;;;;7.20;4.22;;;5.80;99.90;;;;;;7211133;32;20325;-76
2022/01/24 10:24:48;;;;;;;5.25;2.60;;;5.70;99.90;;;;;;7195826;32;20557;-76
2022/01/24 10:28:50;;;;;;;3.97;2.62;;;5.90;99.90;;;;;;7208689;32;20117;-76
2022/01/24 10:32:55;;;;;;;4.40;2.20;;;6.10;99.90;;;;;;7207447;32;20552;-77
2022/01/24 10:36:57;;;;;;;5.65;2.70;;;6.40;99.90;;;;;;7215897;32;20321;-76
2022/01/24 10:41:12;;;;;;;2.67;2.12;;;6.40;99.90;;;;;;7225666;32;20151;-77
2022/01/24 10:45:17;;;;;;;3.65;2.50;;;6.50;99.90;;;;;;7208915;32;20168;-75
2022/01/24 10:49:31;;;;;;;5.43;2.60;;;6.50;99.90;;;;;;7226454;32;20266;-77
2022/01/24 10:53:52;;;;;;;6.45;2.50;;;6.40;99.90;;;;;;7211256;32;20153;-77
2022/01/24 10:58:04;;;;;;;4.28;2.75;;;6.40;99.90;;;;;;7224322;32;20148;-77
2022/01/24 11:02:06;;;;;;;3.20;2.47;;;6.50;99.90;;;;;;7210157;32;22201;-73
2022/01/24 11:06:24;;;;;;;3.20;2.65;;;6.40;99.90;;;;;;7208069;32;20135;-77
2022/01/24 11:10:30;;;;;;;3.42;2.65;;;6.40;99.90;;;;;;7192757;32;20187;-77
2022/01/24 11:14:32;;;;;;;3.25;2.30;;;6.60;99.90;;;;;;7198429;32;20260;-73
2022/01/24 11:18:34;;;;;;;6.30;2.60;;;6.50;99.90;;;;;;7208911;32;20231;-75
2022/01/24 11:22:42;;;;;;;4.12;2.70;;;6.60;99.90;;;;;;7202135;32;20120;-77
2022/01/24 11:26:46;;;;;;;4.78;2.65;;;6.60;99.90;;;;;;7212860;32;20224;-73
2022/01/24 11:31:01;;;;;;;4.95;2.70;;;6.70;99.90;;;;;;7195110;32;20120;-73
2022/01/24 11:35:05;;;;;;;4.03;2.75;;;6.70;99.90;;;;;;7209904;32;20146;-76
2022/01/24 11:39:07;;;;;;;3.83;3.03;;;6.70;99.90;;;;;;7209870;32;20307;-76
2022/01/24 11:43:26;;;;;;;4.93;2.80;;;6.80;99.90;;;;;;7205062;32;20240;-75
2022/01/24 11:47:28;;;;;;;3.83;2.60;;;6.70;99.90;;;;;;7230010;32;20113;-73
2022/01/24 11:51:32;;;;;;;3.58;2.53;;;6.90;99.90;;;;;;7215727;32;20125;-75
2022/01/24 11:55:36;;;;;;;8.18;3.08;;;6.80;99.90;;;;;;7215589;32;20618;-76
2022/01/24 11:59:38;;;;;;;3.53;2.62;;;6.90;99.90;;;;;;7214733;32;20207;-76
2022/01/24 12:03:50;;;;;;;5.70;3.17;;;6.80;99.90;;;;;;7212701;32;20270;-76
2022/01/24 12:07:54;;;;;;;4.82;2.85;;;6.60;99.90;;;;;;7219481;32;21044;-75
2022/01/24 12:11:55;;;;;;;3.95;3.10;;;6.60;99.90;;;;;;7214144;32;20219;-74
2022/01/24 12:16:18;;;;;;;3.80;2.60;;;6.60;99.90;;;;;;7211392;32;20232;-77
2022/01/24 12:20:32;;;;;;;3.50;2.35;;;6.50;99.90;;;;;;7210232;32;20238;-75
2022/01/24 12:24:44;;;;;;;4.97;2.90;;;6.50;99.90;;;;;;7196112;32;20579;-74
2022/01/24 12:28:50;;;;;;;4.80;2.67;;;6.60;99.90;;;;;;7223904;32;20187;-77
2022/01/24 12:32:53;;;;;;;4.40;3.15;;;6.50;99.90;;;;;;7205014;32;20467;-76
2022/01/24 12:37:02;;;;;;;4.15;2.60;;;6.40;99.90;;;;;;7198240;32;20125;-77
2022/01/24 12:41:22;;;;;;;7.82;3.20;;;6.30;99.90;;;;;;7219723;32;20121;-74
2022/01/24 12:49:50;;;;;;;5.28;2.53;;;6.00;99.90;;;;;;7225714;32;20180;-77
2022/01/24 12:53:54;;;;;;;5.35;2.40;;;6.10;99.90;;;;;;7214172;32;20556;-77
2022/01/24 12:57:57;;;;;;;4.35;2.40;;;6.20;99.90;;;;;;7224653;32;20121;-77
2022/01/24 13:02:02;;;;;;;4.75;2.37;;;6.30;99.90;;;;;;7179918;27;20113;-61
2022/01/24 13:06:15;;;;;;;3.20;2.00;;;6.10;99.90;;;;;;7179020;33;20224;-60
2022/01/24 13:10:21;;;;;;;6.62;2.67;;;6.20;99.90;;;;;;7176554;32;20152;-59
2022/01/24 13:14:33;;;;;;;3.92;2.50;;;6.10;99.90;;;;;;7165304;32;20206;-60
2022/01/24 13:23:03;;;;;;;4.25;2.60;;;6.00;99.90;;;;;;7179381;32;20148;-60
2022/01/24 13:27:05;;;;;;;3.45;2.53;;;6.00;99.90;;;;;;7169961;32;20185;-60
2022/01/24 13:31:08;;;;;;;4.95;2.92;;;5.90;99.90;;;;;;7183877;33;20133;-61
2022/01/24 13:35:32;;;;;;;4.10;2.60;;;5.80;99.90;;;;;;7179067;32;20869;-61
2022/01/24 13:39:33;;;;;;;3.83;2.40;;;5.60;99.90;;;;;;7161756;33;20128;-60
2022/01/24 13:43:41;;;;;;;4.90;2.90;;;5.60;99.90;;;;;;7169450;32;20160;-63
2022/01/24 13:47:55;;;;;;;6.78;4.03;;;5.60;99.90;;;;;;7171510;32;20255;-61
2022/01/24 13:51:58;;;;;;;5.68;2.70;;;5.70;99.90;;;;;;7172545;32;20137;-61
2022/01/24 13:56:14;;;;;;;5.85;2.72;;;5.60;99.90;;;;;;7178712;33;20576;-61
2022/01/24 14:00:22;;;;;;;5.90;2.60;;;5.50;99.90;;;;;;7176000;32;20537;-61
2022/01/24 14:04:48;;;;;;;4.53;3.22;;;5.30;99.90;;;;;;7174699;32;20212;-60
2022/01/24 14:09:11;;;;;;;5.07;2.85;;;5.20;99.90;;;;;;7178509;32;20109;-61
2022/01/24 14:13:20;;;;;;;5.03;2.80;;;5.20;99.90;;;;;;7172604;32;20239;-61
2022/01/24 14:21:32;;;;;;;4.53;2.70;;;5.10;99.90;;;;;;7182311;32;22177;-62
2022/01/24 14:25:35;;;;;;;3.90;2.75;;;5.30;99.90;;;;;;7174258;32;20786;-62
2022/01/24 14:29:38;;;;;;;8.07;2.95;;;5.30;99.90;;;;;;7173709;32;20133;-61
2022/01/24 14:33:42;;;;;;;3.33;2.50;;;5.30;99.90;;;;;;7171471;32;20113;-62
2022/01/24 14:37:51;;;;;;;5.22;2.50;;;5.40;99.90;;;;;;7169309;33;20122;-61
2022/01/24 14:41:53;;;;;;;5.07;2.70;;;5.40;99.90;;;;;;7178577;32;20802;-61
2022/01/24 14:45:55;;;;;;;4.55;2.85;;;5.40;99.90;;;;;;7173810;32;20201;-62
2022/01/24 14:49:57;;;;;;;5.70;2.80;;;5.40;99.90;;;;;;7170886;32;20110;-60
2022/01/24 14:54:03;;;;;;;4.80;3.17;;;5.40;99.90;;;;;;7172778;33;20127;-60
2022/01/24 14:58:04;;;;;;;4.90;3.25;;;5.40;99.90;;;;;;7174933;33;20518;-60
2022/01/24 15:02:06;;;;;;;7.47;3.30;;;5.40;99.90;;;;;;7174902;32;20109;-62
2022/01/24 15:06:10;;;;;;;6.62;3.78;;;5.30;99.90;;;;;;7171108;32;20130;-61
2022/01/24 15:10:12;;;;;;;3.37;2.95;;;5.30;99.90;;;;;;7180154;32;20243;-62
2022/01/24 15:14:23;;;;;;;4.55;2.75;;;5.20;99.90;;;;;;7171772;32;20208;-61
2022/01/24 15:27:06;;;;;;;4.70;2.60;;;5.10;99.90;;;;;;7170398;32;20605;-61
2022/01/24 15:31:08;;;;;;;5.35;3.00;;;5.10;99.90;;;;;;7172109;32;20193;-62
2022/01/24 15:35:12;;;;;;;5.05;3.15;;;5.10;99.90;;;;;;7177346;33;20124;-61
2022/01/24 15:39:15;;;;;;;4.28;2.95;;;4.90;99.90;;;;;;7174267;32;20204;-61
2022/01/24 15:51:31;;;;;;;6.85;2.87;;;5.00;99.90;;;;;;7175579;32;20222;-61
2022/01/24 15:55:36;;;;;;;6.93;2.90;;;4.90;99.90;;;;;;7176497;32;20163;-63
2022/01/24 15:59:38;;;;;;;7.22;3.83;;;4.70;99.90;;;;;;7171096;33;20450;-62
2022/01/24 16:03:40;;;;;;;5.85;3.17;;;4.60;99.90;;;;;;7172510;32;20246;-62
2022/01/24 16:07:43;;;;;;;4.60;2.70;;;4.50;99.90;;;;;;7177820;32;20113;-61
2022/01/24 16:11:45;;;;;;;4.25;2.85;;;4.50;99.90;;;;;;7173933;32;20347;-61
2022/01/24 16:16:01;;;;;;;8.18;3.55;;;4.60;99.90;;;;;;7171320;32;20742;-62
2022/01/24 16:20:11;;;;;;;4.93;3.12;;;4.60;99.90;;;;;;7173907;32;20247;-61
2022/01/24 16:28:27;;;;;;;8.32;3.75;;;4.50;99.90;;;;;;7169649;32;20106;-60
2022/01/24 16:32:28;;;;;;;7.10;3.15;;;4.50;99.90;;;;;;7174389;33;20102;-61
2022/01/24 16:36:30;;;;;;;4.45;3.08;;;4.60;99.90;;;;;;7171187;33;20108;-62
2022/01/24 16:41:09;;;;;;;5.05;3.28;;;4.40;99.90;;;;;;7174257;33;20676;-61
2022/01/24 16:45:15;;;;;;;6.40;4.12;;;4.60;99.90;;;;;;7179035;32;20236;-59
2022/01/24 16:49:18;;;;;;;5.43;4.30;;;4.40;99.90;;;;;;7179353;32;20109;-61
2022/01/24 16:53:20;;;;;;;4.65;3.00;;;4.30;99.90;;;;;;7179666;32;20598;-59
2022/01/24 16:57:22;;;;;;;5.97;3.62;;;4.50;99.90;;;;;;7177833;32;20236;-59
2022/01/24 17:01:24;;;;;;;6.32;3.40;;;4.50;99.90;;;;;;7182995;32;20274;-59
2022/01/24 17:05:26;;;;;;;7.18;3.45;;;4.30;99.90;;;;;;7181194;32;20128;-60
2022/01/24 17:09:28;;;;;;;5.07;3.72;;;4.30;99.90;;;;;;7178169;32;20110;-60
2022/01/24 17:13:29;;;;;;;7.40;4.03;;;4.40;99.90;;;;;;7179492;32;20712;-60
2022/01/24 17:17:34;;;;;;;6.93;3.40;;;4.30;99.90;;;;;;7162899;32;20555;-60
2022/01/24 17:21:36;;;;;;;7.78;3.67;;;4.30;99.90;;;;;;7173632;33;20120;-59
2022/01/24 17:25:58;;;;;;;4.72;3.50;;;4.30;99.90;;;;;;7175438;32;20853;-60
2022/01/24 17:30:00;;;;;;;6.50;3.60;;;4.50;99.90;;;;;;7176200;32;20102;-60
2022/01/24 17:34:22;;;;;;;7.65;4.10;;;4.40;99.90;;;;;;7178501;32;20389;-60
2022/01/24 17:38:23;;;;;;;7.87;3.90;;;4.50;99.90;;;;;;7167064;33;20114;-60
2022/01/24 17:42:25;;;;;;;6.28;4.78;;;4.30;99.90;;;;;;7176558;32;20109;-59
2022/01/24 17:46:28;;;;;;;8.18;4.90;;;4.20;99.90;;;;;;7180453;32;20109;-59
2022/01/24 17:50:31;;;;;;;6.12;3.95;;;4.20;99.90;;;;;;7170671;32;20117;-60
2022/01/24 17:54:33;;;;;;;4.93;3.97;;;4.20;99.90;;;;;;7174558;32;20218;-59
2022/01/24 17:58:35;;;;;;;5.15;3.78;;;4.30;99.90;;;;;;7176637;32;20530;-58
2022/01/24 18:02:40;;;;;;;5.53;4.10;;;4.40;99.90;;;;;;7175881;32;20197;-59
2022/01/24 18:06:44;;;;;;;6.12;3.95;;;4.40;99.90;;;;;;7179815;32;20546;-60
2022/01/24 18:10:46;;;;;;;5.87;4.07;;;4.50;99.90;;;;;;7163353;32;20125;-60
2022/01/24 18:14:48;;;;;;;8.75;4.43;;;4.40;99.90;;;;;;7177441;33;20110;-59
2022/01/24 18:18:49;;;;;;;10.20;4.47;;;4.40;99.90;;;;;;7178744;32;20141;-59
2022/01/24 18:22:52;;;;;;;8.35;4.22;;;4.20;99.90;;;;;;7182736;32;20109;-60
2022/01/24 18:26:53;;;;;;;6.95;4.55;;;4.30;99.90;;;;;;7174728;32;20113;-60
2022/01/24 18:30:55;;;;;;;12.30;5.87;;;4.20;99.90;;;;;;7180712;32;20106;-60
2022/01/24 18:34:57;;;;;;;7.53;5.00;;;4.10;99.90;;;;;;7171673;32;20102;-60
2022/01/24 18:38:59;;;;;;;7.50;5.10;;;4.10;99.90;;;;;;7173432;32;20129;-60
2022/01/24 18:43:01;;;;;;;8.70;4.75;;;4.10;99.90;;;;;;7165673;32;20653;-60
2022/01/24 18:47:03;;;;;;;7.78;4.93;;;4.10;99.90;;;;;;7178168;32;20189;-59
2022/01/24 18:51:06;;;;;;;7.05;6.05;;;4.10;99.90;;;;;;7174952;32;20114;-61
2022/01/24 18:55:08;;;;;;;8.07;5.50;;;4.10;99.90;;;;;;7177792;32;20219;-59
2022/01/24 18:59:10;;;;;;;9.18;6.90;;;4.20;99.90;;;;;;7178363;32;20117;-59
2022/01/24 19:03:12;;;;;;;7.20;6.28;;;4.20;99.90;;;;;;7179073;32;20224;-58
2022/01/24 19:07:13;;;;;;;7.82;6.18;;;4.20;99.90;;;;;;7171550;33;20271;-58
2022/01/24 19:11:15;;;;;;;7.55;6.70;;;4.10;99.90;;;;;;7178346;32;20122;-59
2022/01/24 19:15:24;;;;;;;8.63;6.30;;;4.10;99.90;;;;;;7180176;32;20124;-57
2022/01/24 19:23:34;;;;;;;;;;;4.00;99.90;;;;;;7173263;32;20387;-60
2022/01/24 19:27:36;;;;;;;7.97;6.62;;;4.00;99.90;;;;;;7183498;32;20017;-60
2022/01/24 19:31:38;;;;;;;10.52;6.53;;;4.00;99.90;;;;;;7176787;33;20573;-60
2022/01/24 19:35:41;;;;;;;8.30;6.53;;;4.00;99.90;;;;;;7174982;33;20792;-59
2022/01/24 19:39:42;;;;;;;11.95;7.18;;;4.00;99.90;;;;;;7180421;33;20637;-59
2022/01/24 19:43:44;;;;;;;9.57;7.05;;;3.90;99.90;;;;;;7166520;33;20109;-59
2022/01/24 19:47:46;;;;;;;11.05;7.40;;;3.90;99.90;;;;;;7169577;33;20159;-59
2022/01/24 19:51:53;;;;;;;9.73;7.60;;;3.90;99.90;;;;;;7175580;33;20141;-60
2022/01/24 19:56:05;;;;;;;9.13;7.60;;;4.00;99.90;;;;;;7176980;33;20106;-59
2022/01/24 20:00:08;;;;;;;14.02;7.62;;;4.00;99.90;;;;;;7178124;33;20140;-60
2022/01/24 20:04:10;;;;;;;7.70;6.87;;;4.00;99.90;;;;;;7172514;33;20809;-59
2022/01/24 20:08:12;;;;;;;9.50;7.28;;;4.00;99.90;;;;;;7174146;33;20151;-60
2022/01/24 20:12:15;;;;;;;12.07;7.95;;;3.80;99.90;;;;;;7180236;33;20180;-59
2022/01/24 20:16:17;;;;;;;9.68;7.68;;;3.80;99.90;;;;;;7173678;33;20176;-60
2022/01/24 20:20:21;;;;;;;13.38;8.10;;;3.90;99.90;;;;;;7165845;33;20109;-60
2022/01/24 20:24:30;;;;;;;12.77;8.38;;;3.90;99.90;;;;;;7163919;33;20105;-59
2022/01/24 20:28:32;;;;;;;10.45;8.65;;;3.90;99.90;;;;;;7177852;33;20836;-58
2022/01/24 20:32:34;;;;;;;14.82;7.40;;;3.90;99.90;;;;;;7175588;33;20106;-58
2022/01/24 20:36:36;;;;;;;10.57;7.95;;;3.80;99.90;;;;;;7168801;33;20114;-58
2022/01/24 20:40:38;;;;;;;9.60;7.72;;;3.80;99.90;;;;;;7181751;33;20625;-60
2022/01/24 20:44:40;;;;;;;10.00;7.68;;;3.90;99.90;;;;;;7174860;33;20526;-59
2022/01/24 20:48:42;;;;;;;12.57;8.10;;;3.80;99.90;;;;;;7181738;33;20110;-59
2022/01/24 20:52:45;;;;;;;10.10;7.25;;;4.00;99.90;;;;;;7177218;33;20659;-60
2022/01/24 20:56:47;;;;;;;11.25;8.18;;;4.00;99.90;;;;;;7175802;33;20105;-60
2022/01/24 21:00:49;;;;;;;11.38;7.97;;;4.00;99.90;;;;;;7173479;33;20204;-60
2022/01/24 21:04:51;;;;;;;8.20;7.32;;;4.00;99.90;;;;;;7161063;33;20206;-60
2022/01/24 21:08:53;;;;;;;14.63;8.30;;;4.10;99.90;;;;;;7165194;33;20133;-60
2022/01/24 21:13:09;;;;;;;10.65;6.87;;;4.10;99.90;;;;;;7177412;33;20117;-60
2022/01/24 21:17:11;;;;;;;8.90;7.53;;;4.10;99.90;;;;;;7178347;33;20506;-61
2022/01/24 21:21:13;;;;;;;9.70;7.47;;;4.10;99.90;;;;;;7176335;33;20336;-60
2022/01/24 21:25:15;;;;;;;10.93;7.65;;;4.20;99.90;;;;;;7170014;33;20109;-60
2022/01/24 21:29:16;;;;;;;10.43;8.30;;;4.10;99.90;;;;;;7175882;32;20553;-61
2022/01/24 21:33:21;;;;;;;9.02;8.10;;;4.00;99.90;;;;;;7178821;32;20213;-59
2022/01/24 21:37:25;;;;;;;13.18;9.57;;;4.00;99.90;;;;;;7179793;32;20254;-60
2022/01/24 21:41:26;;;;;;;10.32;8.68;;;3.90;99.90;;;;;;7178809;32;20595;-60
2022/01/24 21:45:31;;;;;;;11.48;9.48;;;4.00;99.90;;;;;;7171222;32;20110;-60
2022/01/24 21:49:33;;;;;;;14.45;9.63;;;4.10;99.90;;;;;;7181487;32;20110;-59
2022/01/24 21:53:35;;;;;;;12.35;10.48;;;3.90;99.90;;;;;;7173166;32;20128;-60
2022/01/24 21:57:37;;;;;;;13.15;10.60;;;3.80;99.90;;;;;;7169357;32;20335;-60
2022/01/24 22:01:39;;;;;;;14.50;10.82;;;3.90;99.90;;;;;;7159022;32;20113;-60
2022/01/24 22:05:43;;;;;;;12.90;10.48;;;3.80;99.90;;;;;;7152023;33;20133;-60
2022/01/24 22:09:45;;;;;;;14.35;10.18;;;3.90;99.90;;;;;;7134736;33;20247;-61
2022/01/24 22:13:50;;;;;;;13.65;11.05;;;3.80;99.90;;;;;;7152101;33;20505;-60
2022/01/24 22:17:53;;;;;;;15.80;11.00;;;3.80;99.90;;;;;;7145402;33;20133;-61
2022/01/24 22:21:54;;;;;;;11.70;10.05;;;3.90;99.90;;;;;;7152844;33;20134;-61
2022/01/24 22:26:01;;;;;;;9.85;8.25;;;3.90;99.90;;;;;;7145688;33;20621;-60
2022/01/24 22:30:04;;;;;;;14.07;9.27;;;4.00;99.90;;;;;;7138032;33;20146;-61
2022/01/24 22:34:06;;;;;;;10.73;8.52;;;4.00;99.90;;;;;;7155277;33;20584;-60
2022/01/24 22:38:08;;;;;;;11.23;8.50;;;4.00;99.90;;;;;;7133043;33;20107;-61
2022/01/24 22:42:09;;;;;;;9.68;8.07;;;4.00;99.90;;;;;;7144025;33;20228;-60
2022/01/24 22:46:17;;;;;;;12.02;8.88;;;4.00;99.90;;;;;;7151465;33;20122;-60
2022/01/24 22:50:19;;;;;;;14.10;10.27;;;3.90;99.90;;;;;;7156804;33;20616;-61
2022/01/24 22:54:21;;;;;;;12.23;10.15;;;3.90;99.90;;;;;;7146846;33;20228;-60
2022/01/24 22:58:23;;;;;;;14.98;10.48;;;3.90;99.90;;;;;;7156099;33;20106;-61
2022/01/24 23:02:25;;;;;;;14.13;10.57;;;3.90;99.90;;;;;;7168081;32;20654;-61
2022/01/24 23:06:27;;;;;;;14.95;11.93;;;3.80;99.90;;;;;;7176785;32;20534;-60
2022/01/24 23:10:28;;;;;;;13.93;11.05;;;3.70;99.90;;;;;;7170446;32;20220;-60
2022/01/24 23:22:58;;;;;;;14.50;11.88;;;3.70;99.90;;;;;;7173231;32;20223;-60
2022/01/24 23:27:18;;;;;;;16.17;11.82;;;3.70;99.90;;;;;;7173766;32;20109;-60
2022/01/24 23:31:19;;;;;;;15.45;11.45;;;3.60;99.90;;;;;;7169697;32;20114;-60
2022/01/24 23:39:45;;;;;;;16.42;11.45;;;3.60;99.90;;;;;;7172011;32;20109;-59
2022/01/24 23:43:49;;;;;;;17.37;12.13;;;3.60;99.90;;;;;;7176525;32;20204;-58